Time;durP1;ratioP1;P1;durP2;ratioP2;P2;SDS_P1;SDS_P2;PMS_P1;PMS_P2;Temp;Humidity;BMP_temperature;BMP_pressure;BME280_temperature;BME280_humidity;BME280_pressure;Samples;Min_cycle;Max_cycle;Signal;HPM_P1;HPM_P2
2022/12/02 00:01:43;;;;;;;;;;;16.70;49.10;;;;;;5192276;27;19918;-68
2022/12/02 00:04:15;;;;;;;;;;;16.70;49.10;;;;;;5191986;27;20388;-68
2022/12/02 00:06:41;;;;;;;;;;;16.70;49.10;;;;;;5173194;27;19919;-67
2022/12/02 00:09:27;;;;;;;;;;;16.70;49.10;;;;;;5169475;27;19918;-67
2022/12/02 00:11:52;;;;;;;;;;;16.70;49.10;;;;;;5177685;27;20281;-67
2022/12/02 00:14:21;;;;;;;;;;;16.70;49.10;;;;;;5159058;27;19922;-68
2022/12/02 00:16:47;;;;;;;;;;;16.70;49.10;;;;;;5159104;27;19966;-65
2022/12/02 00:19:12;;;;;;;;;;;16.60;49.10;;;;;;5177661;27;19980;-68
2022/12/02 00:21:38;;;;;;;;;;;16.60;49.20;;;;;;5177770;27;20294;-68
2022/12/02 00:24:04;;;;;;;;;;;16.60;49.10;;;;;;5177562;27;20511;-68
2022/12/02 00:26:29;;;;;;;;;;;16.60;49.20;;;;;;5177670;27;19925;-68
2022/12/02 00:28:55;;;;;;;;;;;16.60;49.20;;;;;;5159058;27;19958;-68
2022/12/02 00:31:20;;;;;;;;;;;16.60;49.20;;;;;;5177539;27;20017;-67
2022/12/02 00:33:46;;;;;;;;;;;16.60;50.00;;;;;;5159036;27;20285;-68
2022/12/02 00:36:11;;;;;;;;;;;16.50;49.20;;;;;;5158732;27;19925;-66
2022/12/02 00:38:37;;;;;;;;;;;16.50;49.20;;;;;;5177219;27;19923;-68
2022/12/02 00:41:02;;;;;;;;;;;16.50;49.20;;;;;;5158852;27;19922;-68
2022/12/02 00:46:44;;;;;;;;;;;16.50;49.30;;;;;;5177091;27;20294;-68
2022/12/02 00:49:15;;;;;;;;;;;16.50;49.30;;;;;;5158060;27;19929;-68
2022/12/02 00:51:41;;;;;;;;;;;16.50;49.30;;;;;;5158731;27;19919;-68
2022/12/02 00:54:07;;;;;;;;;;;16.50;49.40;;;;;;5158553;27;19926;-68
2022/12/02 00:56:32;;;;;;;;;;;16.50;49.40;;;;;;5177140;27;20281;-68
2022/12/02 00:58:58;;;;;;;;;;;16.50;49.40;;;;;;5154397;27;19927;-67
2022/12/02 01:01:24;;;;;;;;;;;16.40;49.30;;;;;;5154779;27;19926;-68
2022/12/02 01:03:50;;;;;;;;;;;16.40;49.40;;;;;;5154739;27;19919;-68
2022/12/02 01:06:15;;;;;;;;;;;16.40;49.30;;;;;;5154915;27;19919;-68
2022/12/02 01:08:41;;;;;;;;;;;16.40;49.40;;;;;;5154648;27;19919;-67
2022/12/02 01:11:07;;;;;;;;;;;16.40;49.40;;;;;;5154508;27;19919;-65
2022/12/02 01:13:33;;;;;;;;;;;16.40;49.40;;;;;;5154709;27;19919;-68
2022/12/02 01:15:58;;;;;;;;;;;16.40;49.40;;;;;;5154803;27;19930;-68
2022/12/02 01:18:24;;;;;;;;;;;16.40;49.40;;;;;;5147780;27;19934;-68
2022/12/02 01:20:50;;;;;;;;;;;16.30;49.30;;;;;;5131269;27;19919;-68
2022/12/02 01:23:15;;;;;;;;;;;16.30;49.40;;;;;;5133826;27;20327;-68
2022/12/02 01:25:41;;;;;;;;;;;16.30;49.30;;;;;;5134842;27;19973;-67
2022/12/02 01:28:06;;;;;;;;;;;16.30;49.30;;;;;;5133919;27;19962;-68
2022/12/02 01:30:32;;;;;;;;;;;16.30;49.40;;;;;;5133394;27;20346;-68
2022/12/02 01:32:58;;;;;;;;;;;16.30;49.30;;;;;;5133456;27;19934;-68
2022/12/02 01:35:23;;;;;;;;;;;16.30;49.30;;;;;;5133553;27;19919;-68
2022/12/02 01:37:49;;;;;;;;;;;16.30;49.40;;;;;;5133515;27;20369;-68
2022/12/02 01:40:15;;;;;;;;;;;16.30;49.30;;;;;;5134607;27;20300;-67
2022/12/02 01:42:42;;;;;;;;;;;16.50;48.90;;;;;;5133604;27;19945;-68
2022/12/02 01:45:08;;;;;;;;;;;16.90;48.20;;;;;;5133169;27;19959;-65
2022/12/02 01:47:34;;;;;;;;;;;17.40;47.20;;;;;;5133457;27;19919;-68
2022/12/02 01:49:59;;;;;;;;;;;17.90;46.20;;;;;;5133096;27;19919;-67
2022/12/02 01:52:25;;;;;;;;;;;18.40;45.10;;;;;;5133270;27;19923;-67
2022/12/02 01:54:51;;;;;;;;;;;19.10;43.80;;;;;;5134271;27;20271;-68
2022/12/02 01:57:18;;;;;;;;;;;19.80;42.40;;;;;;5132846;27;20354;-67
2022/12/02 01:59:43;;;;;;;;;;;20.50;41.00;;;;;;5152094;27;20278;-67
2022/12/02 02:02:29;;;;;;;;;;;21.00;40.00;;;;;;5154823;27;19919;-67
2022/12/02 02:04:59;;;;;;;;;;;21.50;39.10;;;;;;5135956;27;19927;-67
2022/12/02 02:07:25;;;;;;;;;;;21.60;38.40;;;;;;5136092;27;19926;-67
2022/12/02 02:09:51;;;;;;;;;;;21.70;39.00;;;;;;5136474;27;19919;-67
2022/12/02 02:12:17;;;;;;;;;;;21.70;38.20;;;;;;5136060;27;19919;-67
2022/12/02 02:14:43;;;;;;;;;;;21.60;38.20;;;;;;5154615;27;19925;-68
2022/12/02 02:17:08;;;;;;;;;;;21.50;38.40;;;;;;5119139;27;19923;-68
2022/12/02 02:19:34;;;;;;;;;;;21.30;38.60;;;;;;5154372;27;20418;-67
2022/12/02 02:22:02;;;;;;;;;;;21.20;38.80;;;;;;5154600;27;19926;-68
2022/12/02 02:24:27;;;;;;;;;;;20.90;39.00;;;;;;5136123;27;19923;-65
2022/12/02 02:26:53;;;;;;;;;;;20.80;39.30;;;;;;5154389;27;19926;-67
2022/12/02 02:29:18;;;;;;;;;;;20.60;39.60;;;;;;5135795;27;20007;-68
2022/12/02 02:31:44;;;;;;;;;;;20.40;39.80;;;;;;5154381;27;19924;-67
2022/12/02 02:34:10;;;;;;;;;;;20.20;40.10;;;;;;5153946;27;19973;-65
2022/12/02 02:36:36;;;;;;;;;;;20.10;40.40;;;;;;5154276;27;19919;-67
2022/12/02 02:39:01;;;;;;;;;;;19.80;40.60;;;;;;5135517;27;20010;-68
2022/12/02 02:41:27;;;;;;;;;;;19.70;40.90;;;;;;5154252;27;19943;-65
2022/12/02 02:43:53;;;;;;;;;;;19.50;41.20;;;;;;5154181;27;19997;-68
2022/12/02 02:46:18;;;;;;;;;;;19.40;41.50;;;;;;5154250;27;19923;-68
2022/12/02 02:48:45;;;;;;;;;;;19.20;41.70;;;;;;5135480;27;20386;-67
2022/12/02 02:51:11;;;;;;;;;;;19.00;41.90;;;;;;5135644;27;20285;-68
2022/12/02 02:53:37;;;;;;;;;;;18.80;42.10;;;;;;5118743;27;19919;-68
2022/12/02 02:56:02;;;;;;;;;;;18.70;42.40;;;;;;5135734;27;20080;-67
2022/12/02 02:58:28;;;;;;;;;;;18.50;42.60;;;;;;5135026;27;19927;-68
2022/12/02 03:03:37;;;;;;;;;;;18.30;43.00;;;;;;5089754;28;20198;-67
2022/12/02 03:06:04;;;;;;;;;;;18.20;43.30;;;;;;5088620;28;19968;-65
2022/12/02 03:08:30;;;;;;;;;;;18.00;43.50;;;;;;5105477;28;20427;-67
2022/12/02 03:10:57;;;;;;;;;;;17.90;43.70;;;;;;5088557;28;19920;-68
2022/12/02 03:13:23;;;;;;;;;;;17.80;43.90;;;;;;5088787;28;19964;-68
2022/12/02 03:15:48;;;;;;;;;;;17.70;44.10;;;;;;5088494;28;20370;-65
2022/12/02 03:18:14;;;;;;;;;;;17.80;44.20;;;;;;5088334;28;20272;-68
2022/12/02 03:20:40;;;;;;;;;;;17.90;44.10;;;;;;5088846;28;20023;-68
2022/12/02 03:23:05;;;;;;;;;;;18.10;43.60;;;;;;5088278;28;19924;-68
2022/12/02 03:25:31;;;;;;;;;;;18.40;43.20;;;;;;5089487;28;19920;-67
2022/12/02 03:27:57;;;;;;;;;;;18.60;42.60;;;;;;5088684;28;19928;-68
2022/12/02 03:30:22;;;;;;;;;;;18.90;42.10;;;;;;5089394;28;20318;-68
2022/12/02 03:32:48;;;;;;;;;;;19.00;41.70;;;;;;5088407;28;19920;-66
2022/12/02 03:35:13;;;;;;;;;;;19.20;41.40;;;;;;5087907;28;20302;-67
2022/12/02 03:37:39;;;;;;;;;;;19.30;41.10;;;;;;5088069;28;19949;-68
2022/12/02 03:40:05;;;;;;;;;;;19.40;40.80;;;;;;5088153;28;19925;-68
2022/12/02 03:42:31;;;;;;;;;;;19.50;40.60;;;;;;5088016;28;19924;-65
2022/12/02 03:44:56;;;;;;;;;;;19.50;40.40;;;;;;5088195;28;20278;-68
2022/12/02 03:47:22;;;;;;;;;;;19.60;40.30;;;;;;5087836;28;19921;-67
2022/12/02 03:49:48;;;;;;;;;;;19.60;40.20;;;;;;5089481;28;19924;-67
2022/12/02 03:52:13;;;;;;;;;;;19.50;40.20;;;;;;5087670;28;20291;-68
2022/12/02 03:54:39;;;;;;;;;;;19.40;40.20;;;;;;5089125;28;19927;-68
2022/12/02 03:57:06;;;;;;;;;;;19.40;40.40;;;;;;5088958;28;19934;-68
2022/12/02 03:59:31;;;;;;;;;;;19.30;40.50;;;;;;5088994;28;19958;-68
2022/12/02 04:01:57;;;;;;;;;;;19.20;40.60;;;;;;5087397;28;19975;-64
2022/12/02 04:04:22;;;;;;;;;;;19.10;40.80;;;;;;5088749;28;20299;-65
2022/12/02 04:06:48;;;;;;;;;;;18.90;41.00;;;;;;5087647;28;20283;-68
2022/12/02 04:09:13;;;;;;;;;;;18.70;41.10;;;;;;5087342;28;20015;-68
2022/12/02 04:11:39;;;;;;;;;;;18.60;41.40;;;;;;5087278;28;19920;-68
2022/12/02 04:14:05;;;;;;;;;;;18.50;41.60;;;;;;5078370;28;19920;-68
2022/12/02 04:16:30;;;;;;;;;;;18.40;41.90;;;;;;5074059;28;19920;-67
2022/12/02 04:18:56;;;;;;;;;;;18.20;42.10;;;;;;5090946;28;20272;-67
2022/12/02 04:21:23;;;;;;;;;;;18.10;42.40;;;;;;5073749;28;19921;-68
2022/12/02 04:23:50;;;;;;;;;;;18.00;42.70;;;;;;5073809;28;20287;-68
2022/12/02 04:26:16;;;;;;;;;;;17.90;42.80;;;;;;5075042;28;20109;-65
2022/12/02 04:28:42;;;;;;;;;;;17.90;43.00;;;;;;5075189;28;20307;-68
2022/12/02 04:31:07;;;;;;;;;;;17.90;43.00;;;;;;5073423;28;19927;-68
2022/12/02 04:33:33;;;;;;;;;;;18.00;43.00;;;;;;5073793;28;19920;-65
2022/12/02 04:35:58;;;;;;;;;;;18.10;43.50;;;;;;5075048;28;20376;-65
2022/12/02 04:38:24;;;;;;;;;;;18.20;42.50;;;;;;5074703;28;19920;-68
2022/12/02 04:40:49;;;;;;;;;;;18.40;42.20;;;;;;5073581;28;19927;-68
2022/12/02 04:43:15;;;;;;;;;;;18.50;42.00;;;;;;5056413;28;20348;-68
2022/12/02 04:45:40;;;;;;;;;;;18.60;41.70;;;;;;5073253;28;19924;-68
2022/12/02 04:48:06;;;;;;;;;;;18.60;41.50;;;;;;5073405;28;19955;-68
2022/12/02 04:50:31;;;;;;;;;;;18.70;41.40;;;;;;5073468;28;19942;-64
2022/12/02 04:52:57;;;;;;;;;;;18.80;41.30;;;;;;5072993;28;20334;-68
2022/12/02 04:55:22;;;;;;;;;;;18.80;41.10;;;;;;5074316;28;20016;-65
2022/12/02 04:57:48;;;;;;;;;;;18.90;41.00;;;;;;5073013;28;19920;-65
2022/12/02 05:00:14;;;;;;;;;;;18.90;40.80;;;;;;5072899;28;19921;-65
2022/12/02 05:02:39;;;;;;;;;;;18.90;40.80;;;;;;5072670;28;19932;-67
2022/12/02 05:05:05;;;;;;;;;;;18.90;40.70;;;;;;5074172;28;20046;-67
2022/12/02 05:07:31;;;;;;;;;;;19.00;41.50;;;;;;5073948;28;19955;-64
2022/12/02 05:09:56;;;;;;;;;;;19.00;40.70;;;;;;5074127;28;19944;-65
2022/12/02 05:12:23;;;;;;;;;;;18.90;40.60;;;;;;5089473;28;19920;-67
2022/12/02 05:14:49;;;;;;;;;;;18.90;40.60;;;;;;5072742;28;19928;-67
2022/12/02 05:17:14;;;;;;;;;;;18.90;40.60;;;;;;5072885;28;19927;-68
2022/12/02 05:19:40;;;;;;;;;;;18.90;40.70;;;;;;5072866;28;19921;-67
2022/12/02 05:22:05;;;;;;;;;;;18.80;40.70;;;;;;5073084;28;20391;-67
2022/12/02 05:24:31;;;;;;;;;;;18.90;40.80;;;;;;5071537;28;19928;-64
2022/12/02 05:26:56;;;;;;;;;;;18.80;40.70;;;;;;5072904;28;19924;-65
2022/12/02 05:29:22;;;;;;;;;;;18.80;40.80;;;;;;5072388;28;19924;-68
2022/12/02 05:31:48;;;;;;;;;;;18.80;40.80;;;;;;5072373;28;19966;-68
2022/12/02 05:34:13;;;;;;;;;;;18.70;40.80;;;;;;5073872;28;19925;-68
2022/12/02 05:36:39;;;;;;;;;;;18.70;40.80;;;;;;5072549;28;19928;-68
2022/12/02 05:39:04;;;;;;;;;;;18.70;40.90;;;;;;5072082;28;20346;-68
2022/12/02 05:41:30;;;;;;;;;;;18.70;40.90;;;;;;5072325;28;19966;-68
2022/12/02 05:43:57;;;;;;;;;;;18.60;41.60;;;;;;5072335;28;19956;-69
2022/12/02 05:46:22;;;;;;;;;;;18.60;40.90;;;;;;5072080;28;20166;-65
2022/12/02 05:48:49;;;;;;;;;;;18.60;40.90;;;;;;5073246;28;20011;-67
2022/12/02 05:51:16;;;;;;;;;;;18.60;40.90;;;;;;5072256;28;19921;-68
2022/12/02 05:53:42;;;;;;;;;;;18.60;40.90;;;;;;5071815;28;19927;-68
2022/12/02 05:56:11;;;;;;;;;;;18.70;40.90;;;;;;5073039;28;19921;-68
2022/12/02 05:58:37;;;;;;;;;;;18.60;40.90;;;;;;5071223;28;19924;-68
2022/12/02 06:01:12;;;;;;;;;;;18.60;40.90;;;;;;5070999;28;20586;-67
2022/12/02 06:03:38;;;;;;;;;;;18.60;40.80;;;;;;5051790;28;19925;-65
2022/12/02 06:06:07;;;;;;;;;;;18.60;40.80;;;;;;5051615;28;19921;-67
2022/12/02 06:08:33;;;;;;;;;;;18.60;40.80;;;;;;5052839;28;20381;-67
2022/12/02 06:11:00;;;;;;;;;;;18.60;40.80;;;;;;5051826;28;19927;-68
2022/12/02 06:13:27;;;;;;;;;;;18.60;40.80;;;;;;5051855;28;20011;-65
2022/12/02 06:15:53;;;;;;;;;;;18.60;40.80;;;;;;5052694;28;20005;-68
2022/12/02 06:18:23;;;;;;;;;;;18.60;40.80;;;;;;5051493;28;19964;-68
2022/12/02 06:20:52;;;;;;;;;;;18.60;40.80;;;;;;5051328;28;20006;-65
2022/12/02 06:23:18;;;;;;;;;;;18.60;40.70;;;;;;5052480;28;19920;-68
2022/12/02 06:25:44;;;;;;;;;;;18.60;40.70;;;;;;5052686;28;19925;-68
2022/12/02 06:31:00;;;;;;;;;;;18.60;40.70;;;;;;5172322;27;19911;-68
2022/12/02 06:33:29;;;;;;;;;;;18.60;40.70;;;;;;5151085;27;20018;-66
2022/12/02 06:35:55;;;;;;;;;;;18.60;40.70;;;;;;5135857;27;19927;-67
2022/12/02 06:38:26;;;;;;;;;;;19.10;40.80;;;;;;5148583;27;20474;-66
2022/12/02 06:40:52;;;;;;;;;;;19.60;40.50;;;;;;5131658;27;20002;-67
2022/12/02 06:43:22;;;;;;;;;;;20.40;39.80;;;;;;5133347;27;20014;-67
2022/12/02 06:45:47;;;;;;;;;;;21.10;39.10;;;;;;5152073;27;19926;-67
2022/12/02 06:48:23;;;;;;;;;;;21.90;38.10;;;;;;5152260;27;19923;-67
2022/12/02 06:50:49;;;;;;;;;;;22.60;37.00;;;;;;5162927;27;19923;-66
2022/12/02 06:53:21;;;;;;;;;;;23.30;36.10;;;;;;5170598;27;19919;-67
2022/12/02 06:55:48;;;;;;;;;;;23.90;35.30;;;;;;5150831;27;20267;-68
2022/12/02 06:58:33;;;;;;;;;;;24.20;34.80;;;;;;5154784;27;20366;-68
2022/12/02 07:01:07;;;;;;;;;;;24.60;34.50;;;;;;5133988;27;19919;-67
2022/12/02 07:03:35;;;;;;;;;;;24.90;34.10;;;;;;5150412;27;19919;-63
2022/12/02 07:06:09;;;;;;;;;;;25.10;34.00;;;;;;5149620;27;19923;-66
2022/12/02 07:08:35;;;;;;;;;;;25.10;33.90;;;;;;5161050;27;19919;-67
2022/12/02 07:11:00;;;;;;;;;;;24.90;34.20;;;;;;5150992;27;19927;-65
2022/12/02 07:13:27;;;;;;;;;;;24.70;34.50;;;;;;5143158;27;19963;-66
2022/12/02 07:15:52;;;;;;;;;;;24.40;34.80;;;;;;5134780;27;20371;-66
2022/12/02 07:18:19;;;;;;;;;;;24.20;35.30;;;;;;5132392;27;19927;-67
2022/12/02 07:20:45;;;;;;;;;;;23.90;35.60;;;;;;5133814;27;20452;-66
2022/12/02 07:23:26;;;;;;;;;;;23.70;36.00;;;;;;5138384;27;19930;-67
2022/12/02 07:25:54;;;;;;;;;;;23.60;36.40;;;;;;5145699;27;19926;-68
2022/12/02 07:28:22;;;;;;;;;;;23.60;36.40;;;;;;5130485;27;20000;-67
2022/12/02 07:30:54;;;;;;;;;;;23.60;36.30;;;;;;5127011;27;20420;-66
2022/12/02 07:33:20;;;;;;;;;;;23.50;36.30;;;;;;5127407;27;19968;-68
2022/12/02 07:35:45;;;;;;;;;;;23.30;36.50;;;;;;5127610;27;19920;-69
2022/12/02 07:38:11;;;;;;;;;;;23.10;36.90;;;;;;5145492;27;19987;-69
2022/12/02 07:40:36;;;;;;;;;;;22.90;37.30;;;;;;5124349;27;20044;-67
2022/12/02 07:43:02;;;;;;;;;;;22.70;37.80;;;;;;5133717;27;20262;-68
2022/12/02 07:45:27;;;;;;;;;;;22.60;38.20;;;;;;5130620;27;19949;-66
2022/12/02 07:47:53;;;;;;;;;;;22.40;38.30;;;;;;5132281;27;20424;-61
2022/12/02 07:50:18;;;;;;;;;;;22.40;38.40;;;;;;5130474;27;19923;-67
2022/12/02 07:52:44;;;;;;;;;;;22.30;38.40;;;;;;5112270;27;20608;-65
2022/12/02 07:55:09;;;;;;;;;;;22.30;38.40;;;;;;5118632;27;19920;-66
2022/12/02 07:57:35;;;;;;;;;;;22.10;38.60;;;;;;5116698;27;20276;-66
2022/12/02 08:00:02;;;;;;;;;;;22.10;38.70;;;;;;5111029;27;20428;-66
2022/12/02 08:02:28;;;;;;;;;;;22.10;38.80;;;;;;5137603;27;19922;-68
2022/12/02 08:04:53;;;;;;;;;;;22.10;38.60;;;;;;5120039;27;19934;-68
2022/12/02 08:07:19;;;;;;;;;;;22.30;38.70;;;;;;5146418;27;20340;-71
2022/12/02 08:09:44;;;;;;;;;;;22.40;38.40;;;;;;5130125;27;19931;-70
2022/12/02 08:12:10;;;;;;;;;;;22.50;38.20;;;;;;5119455;27;19919;-69
2022/12/02 08:14:35;;;;;;;;;;;22.60;38.00;;;;;;5112137;27;20402;-68
2022/12/02 08:17:01;;;;;;;;;;;22.80;37.80;;;;;;5126310;27;19919;-68
2022/12/02 08:19:26;;;;;;;;;;;23.00;37.50;;;;;;5127419;27;19919;-68
2022/12/02 08:21:52;;;;;;;;;;;23.00;37.10;;;;;;5141267;27;19920;-67
2022/12/02 08:24:17;;;;;;;;;;;23.00;37.10;;;;;;5120131;27;19920;-68
2022/12/02 08:26:43;;;;;;;;;;;23.00;37.10;;;;;;5122839;27;19923;-66
2022/12/02 08:29:09;;;;;;;;;;;23.00;37.10;;;;;;5121600;27;19959;-67
2022/12/02 08:31:35;;;;;;;;;;;23.00;37.10;;;;;;5116878;27;19962;-68
2022/12/02 08:34:00;;;;;;;;;;;23.00;36.90;;;;;;5117713;27;19923;-66
2022/12/02 08:36:26;;;;;;;;;;;22.90;36.90;;;;;;5116630;27;20219;-67
2022/12/02 08:38:51;;;;;;;;;;;22.80;36.90;;;;;;5138861;27;19931;-67
2022/12/02 08:41:17;;;;;;;;;;;22.80;37.00;;;;;;5135027;27;19950;-66
2022/12/02 08:43:43;;;;;;;;;;;22.80;36.90;;;;;;5117038;27;20029;-67
2022/12/02 08:46:09;;;;;;;;;;;22.80;37.00;;;;;;5120900;27;20019;-66
2022/12/02 08:48:35;;;;;;;;;;;22.70;36.90;;;;;;5118874;27;19937;-67
2022/12/02 08:51:00;;;;;;;;;;;22.70;36.80;;;;;;5138003;27;19923;-67
2022/12/02 08:53:26;;;;;;;;;;;22.60;36.80;;;;;;5119356;27;20267;-66
2022/12/02 08:55:51;;;;;;;;;;;22.60;36.80;;;;;;5120400;27;19924;-67
2022/12/02 08:58:17;;;;;;;;;;;22.60;36.70;;;;;;5117869;27;19924;-67
2022/12/02 09:00:43;;;;;;;;;;;22.60;36.70;;;;;;5131134;27;19969;-67
2022/12/02 09:03:08;;;;;;;;;;;22.60;36.70;;;;;;5140041;27;19962;-67
2022/12/02 09:05:34;;;;;;;;;;;22.50;36.50;;;;;;5133821;27;19927;-67
2022/12/02 09:08:00;;;;;;;;;;;22.50;36.40;;;;;;5134562;27;19926;-67
2022/12/02 09:10:25;;;;;;;;;;;22.50;36.40;;;;;;5120184;27;20026;-66
2022/12/02 09:12:52;;;;;;;;;;;22.50;37.10;;;;;;5119733;27;19923;-66
2022/12/02 09:15:19;;;;;;;;;;;22.50;36.30;;;;;;5116139;27;19925;-67
2022/12/02 09:17:45;;;;;;;;;;;22.50;36.20;;;;;;5138060;27;19978;-67
2022/12/02 09:20:11;;;;;;;;;;;22.50;36.10;;;;;;5117687;27;20597;-66
2022/12/02 09:22:36;;;;;;;;;;;22.50;36.00;;;;;;5130288;27;20022;-66
2022/12/02 09:25:02;;;;;;;;;;;22.50;36.00;;;;;;5125229;27;19920;-66
2022/12/02 09:27:29;;;;;;;;;;;22.50;36.70;;;;;;5134153;27;20366;-67
2022/12/02 09:29:54;;;;;;;;;;;22.50;35.90;;;;;;5134775;27;19927;-67
2022/12/02 09:32:20;;;;;;;;;;;22.50;35.80;;;;;;5117662;27;20018;-66
2022/12/02 09:34:46;;;;;;;;;;;22.50;35.90;;;;;;5131390;27;19919;-68
2022/12/02 09:37:11;;;;;;;;;;;22.50;35.80;;;;;;5123359;27;20366;-68
2022/12/02 09:39:37;;;;;;;;;;;22.50;35.80;;;;;;5120091;27;19931;-66
2022/12/02 09:42:02;;;;;;;;;;;22.50;35.90;;;;;;5122342;27;19923;-66
2022/12/02 09:44:28;;;;;;;;;;;22.50;35.90;;;;;;5124341;27;19919;-66
2022/12/02 09:46:54;;;;;;;;;;;22.50;36.00;;;;;;5128779;27;20719;-66
2022/12/02 09:49:19;;;;;;;;;;;22.40;36.00;;;;;;5118975;27;19935;-66
2022/12/02 09:51:45;;;;;;;;;;;22.40;36.00;;;;;;5117210;27;19927;-66
2022/12/02 09:54:12;;;;;;;;;;;22.40;36.20;;;;;;5133233;27;20044;-69
2022/12/02 09:56:40;;;;;;;;;;;22.40;36.10;;;;;;5118465;27;19934;-69
2022/12/02 09:59:10;;;;;;;;;;;22.40;36.30;;;;;;5131360;27;19930;-69
2022/12/02 10:01:36;;;;;;;;;;;22.40;36.10;;;;;;5113160;27;20390;-69
2022/12/02 10:04:01;;;;;;;;;;;22.50;36.00;;;;;;5133032;27;19926;-69
2022/12/02 10:06:27;;;;;;;;;;;22.50;36.00;;;;;;5116349;27;20010;-69
2022/12/02 10:08:54;;;;;;;;;;;22.60;35.70;;;;;;5113979;27;20754;-69
2022/12/02 10:11:22;;;;;;;;;;;22.60;35.50;;;;;;5118591;27;20371;-69
2022/12/02 10:13:48;;;;;;;;;;;22.70;35.40;;;;;;5114439;27;19935;-69
2022/12/02 10:16:14;;;;;;;;;;;22.70;35.20;;;;;;5117209;27;20267;-69
2022/12/02 10:18:40;;;;;;;;;;;22.80;35.10;;;;;;5130962;27;20132;-69
2022/12/02 10:21:06;;;;;;;;;;;22.80;35.10;;;;;;5128995;27;19926;-69
2022/12/02 10:23:31;;;;;;;;;;;22.80;35.10;;;;;;5119352;27;19919;-69
2022/12/02 10:28:36;;;;;;;;;;;22.70;34.90;;;;;;5085262;27;1895982;-68
2022/12/02 10:31:10;;;;;;;;;;;22.80;34.90;;;;;;5144007;27;20314;-68
2022/12/02 10:33:37;;;;;;;;;;;22.70;34.80;;;;;;5157350;27;19970;-70
2022/12/02 10:36:03;;;;;;;;;;;22.70;34.70;;;;;;5137584;27;19926;-67
2022/12/02 10:46:32;;;;;;;;;;;22.60;34.70;;;;;;5071936;28;19920;-68
2022/12/02 10:49:18;;;;;;;;;;;22.60;34.70;;;;;;5062276;28;19943;-68
2022/12/02 10:51:43;;;;;;;;;;;22.60;34.70;;;;;;5062833;28;19920;-68
2022/12/02 10:54:19;;;;;;;;;;;22.60;34.50;;;;;;5062874;28;20414;-68
2022/12/02 10:56:44;;;;;;;;;;;22.60;34.30;;;;;;5060196;28;19928;-68
2022/12/02 10:59:12;;;;;;;;;;;22.60;34.30;;;;;;5061790;28;19920;-68
2022/12/02 11:01:39;;;;;;;;;;;22.60;34.30;;;;;;5060712;28;19929;-68
2022/12/02 11:04:07;;;;;;;;;;;22.60;34.40;;;;;;5075528;28;20381;-68
2022/12/02 11:06:33;;;;;;;;;;;22.60;34.30;;;;;;5059496;28;19924;-69
2022/12/02 11:08:59;;;;;;;;;;;22.60;34.20;;;;;;5059014;28;19999;-67
2022/12/02 11:14:08;;;;;;;;;;;22.60;34.50;;;;;;5101986;27;20154;-68
2022/12/02 11:19:22;;;;;;;;;;;22.60;34.20;;;;;;4768677;27;10215275;-68
2022/12/02 11:21:48;;;;;;;;;;;22.50;34.10;;;;;;5124090;27;20267;-68
2022/12/02 11:29:59;;;;;;;;;;;22.50;33.90;;;;;;5097645;27;1868877;-67
2022/12/02 11:35:38;;;;;;;;;;;22.60;33.60;;;;;;5125104;27;19964;-68
2022/12/02 11:38:21;;;;;;;;;;;22.60;33.40;;;;;;5113727;27;19927;-67
2022/12/02 11:43:47;;;;;;;;;;;22.70;33.30;;;;;;5072551;28;19938;-68
2022/12/02 11:46:17;;;;;;;;;;;22.70;33.50;;;;;;5074641;28;19920;-68
2022/12/02 11:48:43;;;;;;;;;;;22.70;33.50;;;;;;5059128;28;20008;-68
2022/12/02 11:51:27;;;;;;;;;;;22.70;33.50;;;;;;5061012;28;20686;-68
2022/12/02 11:53:52;;;;;;;;;;;22.60;33.40;;;;;;5061494;28;20550;-67
2022/12/02 11:56:18;;;;;;;;;;;22.70;33.20;;;;;;5061028;28;19947;-68
2022/12/02 11:58:43;;;;;;;;;;;22.70;33.20;;;;;;5074374;28;19942;-65
2022/12/02 12:01:14;;;;;;;;;;;22.70;33.20;;;;;;5060137;28;20015;-68
2022/12/02 12:03:40;;;;;;;;;;;22.70;33.20;;;;;;5074372;28;19924;-68
2022/12/02 12:06:14;;;;;;;;;;;22.70;34.00;;;;;;5056128;28;19920;-68
2022/12/02 12:08:43;;;;;;;;;;;22.60;33.10;;;;;;5061631;28;20003;-67
2022/12/02 12:13:57;;;;;;;;;;;22.60;33.20;;;;;;5076511;28;19924;-68
2022/12/02 12:16:23;;;;;;;;;;;22.60;33.30;;;;;;5070407;28;19947;-68
2022/12/02 12:18:49;;;;;;;;;;;22.60;33.30;;;;;;5082593;28;19967;-68
2022/12/02 12:29:41;;;;;;;;;;;22.30;33.20;;;;;;5099263;27;19950;-69
2022/12/02 12:32:08;;;;;;;;;;;22.50;33.20;;;;;;5107991;28;19921;-68
2022/12/02 12:34:33;;;;;;;;;;;22.60;33.30;;;;;;5077241;28;20011;-68
2022/12/02 12:36:59;;;;;;;;;;;22.60;33.20;;;;;;5072253;28;20027;-68
2022/12/02 12:39:25;;;;;;;;;;;22.60;33.20;;;;;;5075625;28;19963;-68
2022/12/02 12:41:50;;;;;;;;;;;22.60;33.20;;;;;;5076576;28;20393;-67
2022/12/02 12:44:16;;;;;;;;;;;22.60;33.30;;;;;;5109837;28;20341;-66
2022/12/02 12:46:41;;;;;;;;;;;22.60;33.20;;;;;;5081013;28;19974;-66
2022/12/02 12:49:08;;;;;;;;;;;22.60;33.20;;;;;;5079738;28;19928;-67
2022/12/02 12:51:34;;;;;;;;;;;22.60;33.20;;;;;;5076696;28;19994;-68
2022/12/02 12:53:59;;;;;;;;;;;22.60;33.30;;;;;;5080217;28;20400;-67
2022/12/02 12:56:25;;;;;;;;;;;22.60;33.90;;;;;;5079518;28;20022;-68
2022/12/02 12:58:50;;;;;;;;;;;22.60;33.00;;;;;;5077286;28;19931;-68
2022/12/02 13:01:16;;;;;;;;;;;22.60;33.00;;;;;;5076083;28;19951;-67
2022/12/02 13:03:41;;;;;;;;;;;22.60;33.00;;;;;;5076050;28;19942;-68
2022/12/02 13:06:07;;;;;;;;;;;22.60;33.10;;;;;;5079270;28;20027;-66
2022/12/02 13:08:32;;;;;;;;;;;22.60;33.00;;;;;;5081913;28;20394;-67
2022/12/02 13:10:58;;;;;;;;;;;22.60;32.90;;;;;;5082834;28;20411;-68
2022/12/02 13:13:24;;;;;;;;;;;22.60;32.90;;;;;;5082564;28;20015;-68
2022/12/02 13:15:50;;;;;;;;;;;22.60;32.90;;;;;;5099446;27;19943;-66
2022/12/02 13:18:15;;;;;;;;;;;22.60;32.90;;;;;;5081397;28;19973;-68
2022/12/02 13:20:41;;;;;;;;;;;22.60;33.00;;;;;;5085559;28;19986;-68
2022/12/02 13:23:06;;;;;;;;;;;22.60;33.00;;;;;;5080500;28;19924;-68
2022/12/02 13:25:32;;;;;;;;;;;22.60;32.90;;;;;;5078438;28;19928;-69
2022/12/02 13:27:57;;;;;;;;;;;22.60;32.80;;;;;;5081609;28;19925;-68
2022/12/02 13:30:23;;;;;;;;;;;22.60;32.80;;;;;;5082302;28;19932;-72
2022/12/02 13:32:50;;;;;;;;;;;22.60;32.70;;;;;;5083860;28;20397;-68
2022/12/02 13:35:15;;;;;;;;;;;22.60;32.90;;;;;;5080479;28;19920;-69
2022/12/02 13:37:41;;;;;;;;;;;22.50;32.90;;;;;;5082225;28;20011;-68
2022/12/02 13:40:08;;;;;;;;;;;22.50;33.30;;;;;;5073918;28;19996;-69
2022/12/02 13:42:34;;;;;;;;;;;22.50;33.50;;;;;;5067179;28;20016;-66
2022/12/02 13:44:59;;;;;;;;;;;22.40;33.60;;;;;;5067771;28;20003;-67
2022/12/02 13:47:25;;;;;;;;;;;22.30;33.70;;;;;;5067118;28;19965;-68
2022/12/02 13:49:50;;;;;;;;;;;22.20;33.90;;;;;;5069988;28;20621;-67
2022/12/02 13:52:16;;;;;;;;;;;22.30;34.20;;;;;;5070498;28;20408;-70
2022/12/02 13:54:42;;;;;;;;;;;22.20;34.20;;;;;;5068880;28;19921;-69
2022/12/02 13:57:07;;;;;;;;;;;22.20;34.30;;;;;;5067098;28;19920;-68
2022/12/02 13:59:33;;;;;;;;;;;22.20;34.40;;;;;;5067313;28;19936;-68
2022/12/02 14:01:58;;;;;;;;;;;22.30;34.40;;;;;;5063580;28;19927;-68
2022/12/02 14:04:24;;;;;;;;;;;22.50;34.30;;;;;;5062007;28;19978;-68
2022/12/02 14:06:49;;;;;;;;;;;22.60;34.20;;;;;;5090211;28;20135;-68
2022/12/02 14:09:15;;;;;;;;;;;22.80;34.10;;;;;;5072890;28;20427;-68
2022/12/02 14:11:40;;;;;;;;;;;22.90;33.90;;;;;;5070264;28;20478;-67
2022/12/02 14:14:07;;;;;;;;;;;22.80;33.80;;;;;;5072469;28;19920;-69
2022/12/02 14:16:32;;;;;;;;;;;22.70;33.90;;;;;;5070842;28;20273;-68
2022/12/02 14:18:58;;;;;;;;;;;22.60;34.20;;;;;;5065767;28;19927;-69
2022/12/02 14:21:24;;;;;;;;;;;22.50;34.30;;;;;;5064759;28;19931;-69
2022/12/02 14:23:49;;;;;;;;;;;22.40;34.30;;;;;;5070345;28;20296;-70
2022/12/02 14:26:15;;;;;;;;;;;22.30;34.30;;;;;;5069407;28;19928;-69
2022/12/02 14:28:40;;;;;;;;;;;22.30;34.30;;;;;;5067546;28;19925;-67
2022/12/02 14:31:06;;;;;;;;;;;22.30;34.40;;;;;;5067563;28;19920;-68
2022/12/02 14:33:31;;;;;;;;;;;22.30;34.30;;;;;;5071807;28;20010;-70
2022/12/02 14:35:57;;;;;;;;;;;22.30;34.20;;;;;;5066512;28;19921;-68
2022/12/02 14:38:22;;;;;;;;;;;22.30;34.10;;;;;;5071485;28;20562;-68
2022/12/02 14:40:48;;;;;;;;;;;22.40;34.10;;;;;;5070451;28;19921;-68
2022/12/02 14:43:13;;;;;;;;;;;22.40;34.00;;;;;;5071615;28;19928;-68
2022/12/02 14:45:39;;;;;;;;;;;22.40;33.80;;;;;;5069091;28;19965;-68
2022/12/02 14:48:04;;;;;;;;;;;22.40;33.70;;;;;;5071687;28;19924;-67
2022/12/02 14:50:30;;;;;;;;;;;22.40;33.70;;;;;;5073253;28;19971;-68
2022/12/02 14:52:56;;;;;;;;;;;22.40;33.50;;;;;;5070900;28;20323;-68
2022/12/02 14:55:22;;;;;;;;;;;22.40;33.40;;;;;;5070231;28;19928;-68
2022/12/02 14:57:47;;;;;;;;;;;22.40;33.40;;;;;;5069589;28;20008;-69
2022/12/02 15:00:13;;;;;;;;;;;22.40;33.40;;;;;;5104140;28;20101;-68